createdAt,value
2019-05-21T00:01:09.156Z,12.00
2019-05-21T00:03:58.932Z,11.93
2019-05-21T00:06:48.696Z,13.43
2019-05-21T00:09:31.614Z,12.50
2019-05-21T00:12:21.391Z,11.27
2019-05-21T00:15:11.224Z,10.43
2019-05-21T00:18:01.039Z,11.20
2019-05-21T00:20:43.912Z,11.50
2019-05-21T00:23:33.758Z,9.53
2019-05-21T00:26:23.522Z,10.37
2019-05-21T00:29:51.374Z,10.33
2019-05-21T00:32:53.675Z,9.27
2019-05-21T00:35:55.588Z,8.70
2019-05-21T00:39:23.557Z,8.33
2019-05-21T00:42:06.468Z,7.37
2019-05-21T00:44:56.220Z,11.07
2019-05-21T00:47:38.688Z,8.53
2019-05-21T00:50:28.420Z,10.07
2019-05-21T00:53:18.465Z,7.53
2019-05-21T00:56:00.845Z,7.90
2019-05-21T00:58:50.752Z,8.27
2019-05-21T01:01:40.536Z,7.80
2019-05-21T01:04:30.250Z,8.63
2019-05-21T01:07:13.728Z,10.80
2019-05-21T01:12:58.151Z,9.10
2019-05-21T01:15:47.894Z,8.63
2019-05-21T01:18:30.140Z,7.77
2019-05-21T01:21:20.027Z,9.27
2019-05-21T01:24:09.837Z,8.03
2019-05-21T01:26:59.621Z,8.23
2019-05-21T01:29:49.464Z,7.10
2019-05-21T01:32:39.428Z,8.50
2019-05-21T01:35:29.211Z,7.10
2019-05-21T01:38:19.020Z,9.63
2019-05-21T01:41:08.832Z,9.00
2019-05-21T01:43:58.561Z,9.63
2019-05-21T01:46:48.327Z,9.20
2019-05-21T01:49:38.130Z,8.80
2019-05-21T01:52:35.503Z,9.77
2019-05-21T01:58:14.310Z,7.10
2019-05-21T02:01:04.032Z,9.63
2019-05-21T02:03:46.331Z,8.70
2019-05-21T02:06:36.273Z,6.93
2019-05-21T02:09:18.891Z,8.37
2019-05-21T02:12:02.809Z,9.00
2019-05-21T02:14:45.638Z,8.00
2019-05-21T02:17:35.405Z,7.53
2019-05-21T02:20:18.287Z,9.63
2019-05-21T02:23:08.056Z,8.50
2019-05-21T02:25:57.848Z,6.90
2019-05-21T02:28:28.505Z,8.83
2019-05-21T02:31:18.257Z,7.10
2019-05-21T02:34:00.410Z,7.47
2019-05-21T02:36:50.254Z,7.47
2019-05-21T02:39:39.984Z,7.67
2019-05-21T02:45:27.224Z,6.63
2019-05-21T02:48:17.007Z,9.23
2019-05-21T02:51:00.175Z,7.00
2019-05-21T02:53:49.927Z,9.00
2019-05-21T02:56:32.805Z,7.77
2019-05-21T02:59:22.562Z,8.13
2019-05-21T03:05:15.022Z,8.40
2019-05-21T03:07:58.262Z,7.63
2019-05-21T03:10:41.697Z,9.70
2019-05-21T03:13:31.517Z,8.00
2019-05-21T03:16:21.354Z,8.73
2019-05-21T03:19:11.142Z,8.57
2019-05-21T03:22:00.885Z,9.63
2019-05-21T03:24:50.849Z,11.97
2019-05-21T03:27:40.698Z,12.77
2019-05-21T03:30:49.553Z,11.23
2019-05-21T03:33:39.250Z,11.50
2019-05-21T03:36:33.246Z,13.43
2019-05-21T03:39:20.735Z,11.10
2019-05-21T03:42:04.240Z,13.03
2019-05-21T03:44:58.870Z,12.00
2019-05-21T03:47:39.740Z,11.57
2019-05-21T03:50:29.520Z,12.47
2019-05-21T03:56:22.964Z,11.80
2019-05-21T03:59:05.395Z,12.70
2019-05-21T04:01:55.253Z,11.10
2019-05-21T04:07:22.033Z,12.70
2019-05-21T04:10:30.877Z,11.70
2019-05-21T04:13:12.919Z,12.87
2019-05-21T04:22:03.239Z,12.40
2019-05-21T04:24:52.926Z,9.70
2019-05-21T04:27:35.150Z,9.80
2019-05-21T04:30:24.900Z,12.13
2019-05-21T04:33:07.340Z,10.63
2019-05-21T04:35:57.126Z,8.37
2019-05-21T04:38:39.383Z,10.83
2019-05-21T04:41:29.108Z,9.37
2019-05-21T04:44:11.115Z,9.40
2019-05-21T04:47:00.866Z,8.00
2019-05-21T04:49:43.676Z,6.87
2019-05-21T04:52:33.416Z,9.03
2019-05-21T04:55:16.177Z,10.43
2019-05-21T04:58:05.929Z,11.03
2019-05-21T05:00:48.343Z,8.37
2019-05-21T05:03:38.094Z,9.00
2019-05-21T05:06:20.598Z,10.30
2019-05-21T05:09:29.533Z,9.53
2019-05-21T05:12:11.889Z,11.73
2019-05-21T05:17:44.737Z,10.83
2019-05-21T05:20:34.570Z,9.37
2019-05-21T05:23:24.379Z,10.73
2019-05-21T05:26:14.208Z,11.10
2019-05-21T05:29:03.947Z,10.90
2019-05-21T05:31:53.687Z,13.77
2019-05-21T05:34:36.451Z,10.83
2019-05-21T05:37:26.265Z,9.27
2019-05-21T05:40:16.355Z,10.60
2019-05-21T05:43:06.149Z,11.73
2019-05-21T05:45:55.906Z,12.10
2019-05-21T05:51:46.679Z,9.23
2019-05-21T05:54:36.434Z,10.47
2019-05-21T05:57:18.494Z,10.83
2019-05-21T06:00:28.765Z,11.57
2019-05-21T06:03:10.703Z,10.40
2019-05-21T06:06:00.437Z,10.10
2019-05-21T06:08:43.295Z,10.30
2019-05-21T06:11:33.024Z,13.73
2019-05-21T06:14:19.879Z,11.63
2019-05-21T06:17:09.577Z,12.93
2019-05-21T06:19:51.560Z,12.27
2019-05-21T06:22:41.292Z,11.87
2019-05-21T06:25:31.053Z,12.20
2019-05-21T06:28:13.513Z,13.73
2019-05-21T06:31:03.255Z,10.40
2019-05-21T06:33:53.088Z,10.63
2019-05-21T06:36:42.876Z,12.80
2019-05-21T06:39:25.453Z,10.83
2019-05-21T06:42:15.288Z,13.73
2019-05-21T06:45:05.656Z,12.73
2019-05-21T06:47:49.772Z,12.80
2019-05-21T06:50:39.518Z,13.27
2019-05-21T06:53:22.162Z,13.50
2019-05-21T06:56:11.911Z,13.37
2019-05-21T06:58:54.120Z,11.87
2019-05-21T07:01:43.902Z,12.17
2019-05-21T07:04:26.515Z,12.13
2019-05-21T07:07:16.292Z,10.70
2019-05-21T07:09:59.191Z,11.87
2019-05-21T07:12:48.893Z,10.93
2019-05-21T07:15:31.804Z,13.33
2019-05-21T07:18:21.559Z,11.67
2019-05-21T07:21:04.347Z,12.67
2019-05-21T07:23:54.285Z,16.37
2019-05-21T07:26:36.603Z,14.53
2019-05-21T07:29:26.378Z,14.10
2019-05-21T07:32:09.284Z,12.40
2019-05-21T07:34:59.161Z,12.77
2019-05-21T07:37:41.525Z,13.27
2019-05-21T07:40:51.772Z,13.57
2019-05-21T07:43:34.180Z,12.87
2019-05-21T07:46:23.924Z,12.53
2019-05-21T07:49:06.122Z,15.30
2019-05-21T07:51:55.839Z,16.63
2019-05-21T07:54:39.980Z,14.13
2019-05-21T07:57:29.699Z,13.97
2019-05-21T08:00:12.245Z,15.17
2019-05-21T08:03:01.999Z,13.90
2019-05-21T08:05:44.168Z,13.63
2019-05-21T08:08:33.919Z,15.53
2019-05-21T08:11:16.026Z,15.30
2019-05-21T08:14:05.737Z,13.83
2019-05-21T08:16:48.177Z,14.00
2019-05-21T08:19:37.937Z,14.60
2019-05-21T08:22:27.641Z,15.20
2019-05-21T08:25:17.417Z,15.17
2019-05-21T08:28:07.221Z,16.97
2019-05-21T08:30:57.056Z,15.63
2019-05-21T08:33:46.829Z,13.67
2019-05-21T08:36:36.618Z,15.00
2019-05-21T08:39:29.153Z,14.17
2019-05-21T08:42:11.148Z,14.23
2019-05-21T08:45:01.085Z,14.03
2019-05-21T08:47:50.946Z,16.33
2019-05-21T08:50:41.217Z,14.17
2019-05-21T08:53:31.024Z,14.53
2019-05-21T08:56:20.842Z,14.67
2019-05-21T08:59:10.554Z,13.17
2019-05-21T09:02:00.448Z,16.47
2019-05-21T09:04:50.255Z,15.13
2019-05-21T09:07:40.085Z,16.17
2019-05-21T09:10:29.867Z,15.17
2019-05-21T09:13:38.734Z,13.27
2019-05-21T09:16:28.519Z,14.07
2019-05-21T09:19:18.265Z,13.93
2019-05-21T09:22:08.117Z,15.13
2019-05-21T09:24:57.893Z,12.57
2019-05-21T09:27:47.672Z,12.17
2019-05-21T09:30:37.383Z,12.13
2019-05-21T09:33:19.815Z,13.80
2019-05-21T09:36:09.549Z,12.80
2019-05-21T09:38:52.341Z,13.27
2019-05-21T09:41:42.089Z,12.20
2019-05-21T09:44:24.967Z,13.00
2019-05-21T09:47:14.701Z,13.07
2019-05-21T09:49:56.866Z,13.20
2019-05-21T09:52:46.614Z,12.73
2019-05-21T09:55:29.142Z,11.73
2019-05-21T09:58:26.775Z,13.70
2019-05-21T10:01:27.572Z,13.80
2019-05-21T10:04:17.382Z,13.67
2019-05-21T10:06:59.314Z,13.43
2019-05-21T10:09:49.105Z,14.30
2019-05-21T10:12:31.381Z,12.37
2019-05-21T10:15:21.131Z,13.00
2019-05-21T10:18:03.979Z,12.80
2019-05-21T10:20:53.696Z,14.07
2019-05-21T10:23:36.167Z,11.23
2019-05-21T10:26:25.958Z,13.67
2019-05-21T10:29:08.590Z,10.63
2019-05-21T10:31:58.495Z,9.47
2019-05-21T10:34:40.710Z,9.23
2019-05-21T10:37:30.430Z,8.93
2019-05-21T10:40:15.564Z,9.73
2019-05-21T10:43:05.390Z,9.07
2019-05-21T10:45:47.860Z,8.73
2019-05-21T10:48:37.674Z,10.60
2019-05-21T10:51:27.517Z,16.87
2019-05-21T10:54:17.300Z,11.07
2019-05-21T10:57:07.054Z,11.80
2019-05-21T11:06:09.696Z,9.87
2019-05-21T11:08:51.866Z,9.53
2019-05-21T11:11:36.246Z,9.33
2019-05-21T11:14:25.971Z,10.40
2019-05-21T11:17:10.701Z,11.50
2019-05-21T11:20:00.434Z,7.83
2019-05-21T11:22:42.885Z,9.57
2019-05-21T11:28:34.035Z,8.70
2019-05-21T11:31:23.750Z,9.80
2019-05-21T11:34:06.437Z,8.20
2019-05-21T11:36:56.279Z,7.83
2019-05-21T11:39:38.550Z,9.80
2019-05-21T11:42:28.301Z,9.40
2019-05-21T11:45:11.303Z,7.30
2019-05-21T11:48:01.034Z,9.43
2019-05-21T11:50:43.323Z,8.73
2019-05-21T11:53:33.029Z,10.17
2019-05-21T11:56:18.182Z,7.60
2019-05-21T11:59:07.946Z,7.67
2019-05-21T12:01:50.174Z,7.63
2019-05-21T12:04:39.864Z,7.77
2019-05-21T12:07:22.784Z,9.57
2019-05-21T12:10:33.113Z,9.40
2019-05-21T12:13:20.040Z,8.97
2019-05-21T12:16:26.385Z,9.43
2019-05-21T12:19:08.813Z,8.77
2019-05-21T12:21:58.467Z,8.03
2019-05-21T12:24:40.952Z,8.27
2019-05-21T12:27:49.933Z,8.20
2019-05-21T12:30:32.349Z,11.00
2019-05-21T12:33:22.063Z,9.27
2019-05-21T12:36:08.447Z,9.47
2019-05-21T12:39:13.210Z,8.97
2019-05-21T12:41:43.620Z,10.60
2019-05-21T12:44:33.379Z,8.43
2019-05-21T12:47:16.293Z,9.30
2019-05-21T12:50:06.139Z,10.43
2019-05-21T12:52:55.858Z,9.33
2019-05-21T12:55:45.673Z,9.50
2019-05-21T12:58:35.516Z,9.60
2019-05-21T13:01:25.315Z,11.10
2019-05-21T13:04:07.721Z,10.13
2019-05-21T13:06:57.538Z,10.47
2019-05-21T13:09:47.406Z,12.03
2019-05-21T13:12:37.124Z,11.27
2019-05-21T13:15:19.093Z,10.17
2019-05-21T13:18:08.889Z,11.23
2019-05-21T13:20:58.682Z,11.93
2019-05-21T13:23:48.480Z,12.70
2019-05-21T13:26:38.278Z,12.93
2019-05-21T13:29:28.098Z,12.60
2019-05-21T13:32:17.896Z,12.70
2019-05-21T13:37:49.661Z,12.83
2019-05-21T13:40:39.591Z,14.33
2019-05-21T13:43:21.779Z,13.77
2019-05-21T13:46:11.549Z,13.33
2019-05-21T13:48:54.179Z,14.20
2019-05-21T13:54:52.984Z,14.87
2019-05-21T13:57:35.535Z,14.83
2019-05-21T14:00:44.351Z,15.67
2019-05-21T14:03:26.601Z,14.50
2019-05-21T14:06:19.999Z,17.37
2019-05-21T14:09:00.229Z,15.97
2019-05-21T14:11:49.934Z,15.20
2019-05-21T14:14:32.774Z,15.97
2019-05-21T14:17:22.970Z,18.83
2019-05-21T14:20:07.734Z,17.33
2019-05-21T14:22:57.460Z,15.73
2019-05-21T14:25:41.062Z,16.70
2019-05-21T14:31:31.890Z,15.03
2019-05-21T14:34:21.616Z,15.83
2019-05-21T14:37:03.710Z,14.07
2019-05-21T14:39:53.496Z,16.33
2019-05-21T14:42:36.082Z,14.87
2019-05-21T14:45:29.026Z,15.47
2019-05-21T14:48:10.671Z,16.30
2019-05-21T14:51:00.404Z,15.37
2019-05-21T14:53:43.295Z,15.73
2019-05-21T14:56:33.009Z,14.87
2019-05-21T14:59:15.567Z,15.43
2019-05-21T15:05:06.430Z,15.57
2019-05-21T15:07:56.401Z,20.17
2019-05-21T15:10:48.702Z,16.00
2019-05-21T15:13:30.681Z,16.50
2019-05-21T15:16:14.701Z,14.53
2019-05-21T15:22:05.892Z,15.27
2019-05-21T15:27:56.407Z,16.17
2019-05-21T15:30:38.522Z,14.40
2019-05-21T15:33:28.302Z,16.83
2019-05-21T15:36:18.123Z,16.97
2019-05-21T15:39:08.391Z,17.00
2019-05-21T15:41:58.279Z,15.97
2019-05-21T15:44:48.082Z,16.90
2019-05-21T15:47:37.867Z,15.47
2019-05-21T15:50:27.621Z,15.37
2019-05-21T15:53:17.333Z,14.43
2019-05-21T15:59:07.992Z,15.43
2019-05-21T16:01:57.718Z,17.47
2019-05-21T16:04:43.138Z,16.23
2019-05-21T16:10:28.068Z,16.03
2019-05-21T16:13:17.885Z,15.97
2019-05-21T16:16:07.672Z,16.30
2019-05-21T16:18:57.662Z,16.20
2019-05-21T16:21:47.687Z,16.33
2019-05-21T16:24:30.283Z,16.97
2019-05-21T16:27:20.039Z,16.87
2019-05-21T16:30:21.698Z,17.20
2019-05-21T16:33:04.487Z,16.67
2019-05-21T16:35:54.391Z,16.33
2019-05-21T16:41:47.347Z,16.97
2019-05-21T16:44:30.329Z,18.67
2019-05-21T16:47:20.147Z,20.33
2019-05-21T16:50:10.678Z,15.60
2019-05-21T16:53:00.570Z,15.73
2019-05-21T16:55:50.367Z,15.57
2019-05-21T16:58:40.223Z,16.33
2019-05-21T17:04:23.834Z,15.97
2019-05-21T17:07:13.665Z,18.07
2019-05-21T17:10:03.597Z,15.70
2019-05-21T17:15:57.434Z,16.43
2019-05-21T17:18:40.146Z,15.37
2019-05-21T17:21:49.032Z,16.10
2019-05-21T17:24:38.857Z,17.97
2019-05-21T17:27:28.678Z,15.27
2019-05-21T17:30:18.575Z,15.93
2019-05-21T17:33:08.378Z,15.67
2019-05-21T17:35:58.099Z,15.40
2019-05-21T17:38:47.800Z,16.13
2019-05-21T17:41:37.620Z,16.37
2019-05-21T17:44:20.683Z,15.70
2019-05-21T17:47:10.440Z,15.37
2019-05-21T17:49:53.078Z,15.43
2019-05-21T17:52:42.774Z,15.87
2019-05-21T17:55:27.286Z,15.23
2019-05-21T17:58:17.035Z,16.17
2019-05-21T18:01:02.636Z,16.03
2019-05-21T18:06:48.459Z,18.43
2019-05-21T18:09:38.270Z,18.67
2019-05-21T18:15:23.530Z,18.53
2019-05-21T18:21:11.079Z,17.47
2019-05-21T18:24:00.798Z,17.97
2019-05-21T18:26:43.876Z,18.43
2019-05-21T18:29:33.664Z,19.37
2019-05-21T18:32:23.422Z,19.80
2019-05-21T18:35:06.290Z,19.40
2019-05-21T18:37:56.145Z,18.57
2019-05-21T18:41:05.107Z,17.60
2019-05-21T18:43:49.984Z,18.33
2019-05-21T18:46:38.662Z,19.43
2019-05-21T18:49:47.542Z,17.10
2019-05-21T18:52:29.578Z,19.13
2019-05-21T18:58:33.877Z,17.63
2019-05-21T19:07:20.913Z,18.40
2019-05-21T19:10:11.134Z,18.43
2019-05-21T19:13:01.366Z,18.73
2019-05-21T19:15:46.825Z,19.47
2019-05-21T19:18:36.605Z,20.73
2019-05-21T19:21:26.414Z,20.43
2019-05-21T19:24:16.243Z,23.13
2019-05-21T19:27:19.529Z,23.43
2019-05-21T19:29:50.311Z,22.70
2019-05-21T19:32:40.045Z,25.93
2019-05-21T19:35:22.512Z,23.53
2019-05-21T19:38:12.179Z,24.07
2019-05-21T19:40:54.876Z,23.67
2019-05-21T19:43:44.676Z,22.27
2019-05-21T19:46:27.559Z,21.77
2019-05-21T19:49:17.528Z,21.73
2019-05-21T19:51:59.908Z,22.07
2019-05-21T19:54:49.727Z,21.60
2019-05-21T19:57:32.881Z,22.07
2019-05-21T20:03:26.472Z,25.03
2019-05-21T20:09:21.390Z,24.77
2019-05-21T20:12:11.155Z,23.57
2019-05-21T20:14:53.281Z,26.50
2019-05-21T20:20:37.972Z,26.47
2019-05-21T20:23:27.757Z,30.37
2019-05-21T20:29:22.405Z,26.50
2019-05-21T20:32:08.947Z,29.63
2019-05-21T20:35:13.936Z,26.87
2019-05-21T20:37:56.451Z,28.03
2019-05-21T20:40:46.492Z,29.37
2019-05-21T20:43:29.022Z,27.67
2019-05-21T20:46:18.843Z,28.00
2019-05-21T20:49:01.359Z,28.47
2019-05-21T20:55:06.946Z,29.23
2019-05-21T21:03:56.342Z,27.83
2019-05-21T21:09:49.359Z,27.93
2019-05-21T21:15:45.149Z,28.83
2019-05-21T21:18:28.304Z,28.17
2019-05-21T21:21:19.110Z,32.27
2019-05-21T21:24:03.481Z,27.57
2019-05-21T21:29:48.734Z,29.97
2019-05-21T21:32:31.067Z,27.77
2019-05-21T21:38:17.464Z,27.63
2019-05-21T21:41:27.512Z,28.43
2019-05-21T21:47:15.582Z,29.67
2019-05-21T21:53:08.426Z,25.17
2019-05-21T21:55:58.141Z,29.47
2019-05-21T21:58:40.889Z,27.63
2019-05-21T22:01:51.087Z,27.07
2019-05-21T22:04:35.814Z,24.90
2019-05-21T22:10:28.772Z,29.90
2019-05-21T22:13:18.481Z,24.03
2019-05-21T22:16:01.057Z,24.50
2019-05-21T22:21:55.403Z,24.80
2019-05-21T22:24:45.279Z,24.43
2019-05-21T22:27:27.573Z,26.47
2019-05-21T22:33:21.027Z,26.30
2019-05-21T22:36:10.951Z,26.33
2019-05-21T22:38:52.981Z,28.20
2019-05-21T22:41:42.731Z,28.57
2019-05-21T22:44:26.116Z,25.37
2019-05-21T22:47:16.241Z,26.60
2019-05-21T22:49:58.889Z,27.73
2019-05-21T22:52:48.661Z,29.37
2019-05-21T22:55:31.541Z,26.27
2019-05-21T22:58:21.318Z,27.60
2019-05-21T23:01:07.237Z,28.17
2019-05-21T23:03:57.273Z,27.43
2019-05-21T23:06:40.550Z,26.40
2019-05-21T23:09:30.571Z,27.93
2019-05-21T23:12:13.175Z,26.23
2019-05-21T23:15:03.117Z,27.47
2019-05-21T23:17:46.437Z,29.43
2019-05-21T23:26:22.184Z,31.23
2019-05-21T23:38:04.096Z,29.27
2019-05-21T23:43:50.447Z,27.73
2019-05-21T23:46:33.014Z,32.80
2019-05-21T23:49:22.813Z,32.33
2019-05-21T23:52:12.601Z,32.60
2019-05-21T23:55:02.580Z,31.43
2019-05-21T23:58:11.692Z,30.43
